sensor_id;sensor_type;location;lat;lon;timestamp;P1;durP1;ratioP1;P2;durP2;ratioP2
38683;SDS011;24910;53.248;-6.134;2023-03-08T00:01:29;2.50;;;0.70;;
38683;SDS011;24910;53.248;-6.134;2023-03-08T00:04:00;0.70;;;0.70;;
38683;SDS011;24910;53.248;-6.134;2023-03-08T00:06:29;4.07;;;0.82;;
38683;SDS011;24910;53.248;-6.134;2023-03-08T00:08:59;2.30;;;0.82;;
38683;SDS011;24910;53.248;-6.134;2023-03-08T00:11:29;2.20;;;0.80;;
38683;SDS011;24910;53.248;-6.134;2023-03-08T00:13:58;17.92;;;5.13;;
38683;SDS011;24910;53.248;-6.134;2023-03-08T00:16:29;5.00;;;0.90;;
38683;SDS011;24910;53.248;-6.134;2023-03-08T00:18:59;1.42;;;0.80;;
38683;SDS011;24910;53.248;-6.134;2023-03-08T00:21:28;5.00;;;2.10;;
38683;SDS011;24910;53.248;-6.134;2023-03-08T00:23:57;2.80;;;1.23;;
38683;SDS011;24910;53.248;-6.134;2023-03-08T00:26:26;2.17;;;1.10;;
38683;SDS011;24910;53.248;-6.134;2023-03-08T00:28:55;2.72;;;1.02;;
38683;SDS011;24910;53.248;-6.134;2023-03-08T00:33:55;4.18;;;1.00;;
38683;SDS011;24910;53.248;-6.134;2023-03-08T00:36:26;2.28;;;1.15;;
38683;SDS011;24910;53.248;-6.134;2023-03-08T00:38:55;6.53;;;1.08;;
38683;SDS011;24910;53.248;-6.134;2023-03-08T00:41:24;1.63;;;1.00;;
38683;SDS011;24910;53.248;-6.134;2023-03-08T00:43:53;4.30;;;1.10;;
38683;SDS011;24910;53.248;-6.134;2023-03-08T00:46:23;3.03;;;1.00;;
38683;SDS011;24910;53.248;-6.134;2023-03-08T00:48:53;3.15;;;1.20;;
38683;SDS011;24910;53.248;-6.134;2023-03-08T00:51:22;4.93;;;1.00;;
38683;SDS011;24910;53.248;-6.134;2023-03-08T00:53:53;3.38;;;1.00;;
38683;SDS011;24910;53.248;-6.134;2023-03-08T00:56:22;3.30;;;1.00;;
38683;SDS011;24910;53.248;-6.134;2023-03-08T00:58:51;2.40;;;0.90;;
38683;SDS011;24910;53.248;-6.134;2023-03-08T01:01:20;3.00;;;1.00;;
38683;SDS011;24910;53.248;-6.134;2023-03-08T01:03:51;1.80;;;0.93;;
38683;SDS011;24910;53.248;-6.134;2023-03-08T01:06:22;2.80;;;0.90;;
38683;SDS011;24910;53.248;-6.134;2023-03-08T01:08:51;4.65;;;0.90;;
38683;SDS011;24910;53.248;-6.134;2023-03-08T01:11:24;5.35;;;0.85;;
38683;SDS011;24910;53.248;-6.134;2023-03-08T01:13:54;3.33;;;0.60;;
38683;SDS011;24910;53.248;-6.134;2023-03-08T01:16:24;1.73;;;0.73;;
38683;SDS011;24910;53.248;-6.134;2023-03-08T01:18:55;1.67;;;0.70;;
38683;SDS011;24910;53.248;-6.134;2023-03-08T01:21:26;3.97;;;0.80;;
38683;SDS011;24910;53.248;-6.134;2023-03-08T01:23:57;6.45;;;1.10;;
38683;SDS011;24910;53.248;-6.134;2023-03-08T01:26:27;2.53;;;0.85;;
38683;SDS011;24910;53.248;-6.134;2023-03-08T01:28:56;4.32;;;0.90;;
38683;SDS011;24910;53.248;-6.134;2023-03-08T01:31:27;1.75;;;0.63;;
38683;SDS011;24910;53.248;-6.134;2023-03-08T01:33:58;2.47;;;0.90;;
38683;SDS011;24910;53.248;-6.134;2023-03-08T01:36:28;4.28;;;0.70;;
38683;SDS011;24910;53.248;-6.134;2023-03-08T01:39:00;2.03;;;0.60;;
38683;SDS011;24910;53.248;-6.134;2023-03-08T01:41:30;3.00;;;0.65;;
38683;SDS011;24910;53.248;-6.134;2023-03-08T01:44:00;3.92;;;0.80;;
38683;SDS011;24910;53.248;-6.134;2023-03-08T01:46:29;3.28;;;0.95;;
38683;SDS011;24910;53.248;-6.134;2023-03-08T01:49:10;1.02;;;0.60;;
38683;SDS011;24910;53.248;-6.134;2023-03-08T01:51:42;3.63;;;0.70;;
38683;SDS011;24910;53.248;-6.134;2023-03-08T01:54:15;1.63;;;0.68;;
38683;SDS011;24910;53.248;-6.134;2023-03-08T01:56:49;5.50;;;0.70;;
38683;SDS011;24910;53.248;-6.134;2023-03-08T01:59:19;1.45;;;0.63;;
38683;SDS011;24910;53.248;-6.134;2023-03-08T02:01:50;4.07;;;1.05;;
38683;SDS011;24910;53.248;-6.134;2023-03-08T02:04:20;2.07;;;0.60;;
38683;SDS011;24910;53.248;-6.134;2023-03-08T02:06:50;2.20;;;0.65;;
38683;SDS011;24910;53.248;-6.134;2023-03-08T02:09:23;3.83;;;0.85;;
38683;SDS011;24910;53.248;-6.134;2023-03-08T02:11:52;1.95;;;0.60;;
38683;SDS011;24910;53.248;-6.134;2023-03-08T02:14:26;3.30;;;0.70;;
38683;SDS011;24910;53.248;-6.134;2023-03-08T02:16:56;3.50;;;1.00;;
38683;SDS011;24910;53.248;-6.134;2023-03-08T02:19:26;4.25;;;0.68;;
38683;SDS011;24910;53.248;-6.134;2023-03-08T02:22:06;2.38;;;0.50;;
38683;SDS011;24910;53.248;-6.134;2023-03-08T02:24:40;4.22;;;0.60;;
38683;SDS011;24910;53.248;-6.134;2023-03-08T02:27:12;1.83;;;0.60;;
38683;SDS011;24910;53.248;-6.134;2023-03-08T02:29:45;2.35;;;0.60;;
38683;SDS011;24910;53.248;-6.134;2023-03-08T02:32:14;2.40;;;0.70;;
38683;SDS011;24910;53.248;-6.134;2023-03-08T02:34:44;2.72;;;0.65;;
38683;SDS011;24910;53.248;-6.134;2023-03-08T02:37:13;2.38;;;1.00;;
38683;SDS011;24910;53.248;-6.134;2023-03-08T02:39:43;2.88;;;0.70;;
38683;SDS011;24910;53.248;-6.134;2023-03-08T02:42:12;3.13;;;0.60;;
38683;SDS011;24910;53.248;-6.134;2023-03-08T02:44:42;3.65;;;0.77;;
38683;SDS011;24910;53.248;-6.134;2023-03-08T02:47:11;2.65;;;0.68;;
38683;SDS011;24910;53.248;-6.134;2023-03-08T02:49:40;0.70;;;0.60;;
38683;SDS011;24910;53.248;-6.134;2023-03-08T02:52:09;2.40;;;0.65;;
38683;SDS011;24910;53.248;-6.134;2023-03-08T02:54:38;1.98;;;0.95;;
38683;SDS011;24910;53.248;-6.134;2023-03-08T02:57:08;3.35;;;0.70;;
38683;SDS011;24910;53.248;-6.134;2023-03-08T02:59:38;5.72;;;0.93;;
38683;SDS011;24910;53.248;-6.134;2023-03-08T03:02:07;3.35;;;0.85;;
38683;SDS011;24910;53.248;-6.134;2023-03-08T03:04:36;2.05;;;0.70;;
38683;SDS011;24910;53.248;-6.134;2023-03-08T03:07:05;2.13;;;0.80;;
38683;SDS011;24910;53.248;-6.134;2023-03-08T03:09:35;5.40;;;0.80;;
38683;SDS011;24910;53.248;-6.134;2023-03-08T03:12:04;1.83;;;0.70;;
38683;SDS011;24910;53.248;-6.134;2023-03-08T03:14:39;4.15;;;0.70;;
38683;SDS011;24910;53.248;-6.134;2023-03-08T03:17:08;3.08;;;0.80;;
38683;SDS011;24910;53.248;-6.134;2023-03-08T03:19:37;0.60;;;0.60;;
38683;SDS011;24910;53.248;-6.134;2023-03-08T03:22:07;2.92;;;0.60;;
38683;SDS011;24910;53.248;-6.134;2023-03-08T03:24:36;4.85;;;0.70;;
38683;SDS011;24910;53.248;-6.134;2023-03-08T03:27:06;2.72;;;0.70;;
38683;SDS011;24910;53.248;-6.134;2023-03-08T03:29:38;2.15;;;0.73;;
38683;SDS011;24910;53.248;-6.134;2023-03-08T03:32:12;1.90;;;0.93;;
38683;SDS011;24910;53.248;-6.134;2023-03-08T03:34:42;2.55;;;0.55;;
38683;SDS011;24910;53.248;-6.134;2023-03-08T03:37:12;3.28;;;0.60;;
38683;SDS011;24910;53.248;-6.134;2023-03-08T03:39:41;1.20;;;0.55;;
38683;SDS011;24910;53.248;-6.134;2023-03-08T03:42:13;4.65;;;0.65;;
38683;SDS011;24910;53.248;-6.134;2023-03-08T03:44:51;1.80;;;0.50;;
38683;SDS011;24910;53.248;-6.134;2023-03-08T03:47:21;2.03;;;0.70;;
38683;SDS011;24910;53.248;-6.134;2023-03-08T03:49:55;1.75;;;0.85;;
38683;SDS011;24910;53.248;-6.134;2023-03-08T03:52:26;5.50;;;0.70;;
38683;SDS011;24910;53.248;-6.134;2023-03-08T03:55:01;4.43;;;0.82;;
38683;SDS011;24910;53.248;-6.134;2023-03-08T03:57:30;4.35;;;0.85;;
38683;SDS011;24910;53.248;-6.134;2023-03-08T04:00:01;2.08;;;0.70;;
38683;SDS011;24910;53.248;-6.134;2023-03-08T04:02:39;5.30;;;1.33;;
38683;SDS011;24910;53.248;-6.134;2023-03-08T04:05:12;5.28;;;0.75;;
38683;SDS011;24910;53.248;-6.134;2023-03-08T04:07:46;4.18;;;0.60;;
38683;SDS011;24910;53.248;-6.134;2023-03-08T04:10:16;7.63;;;0.88;;
38683;SDS011;24910;53.248;-6.134;2023-03-08T04:12:47;4.13;;;0.70;;
38683;SDS011;24910;53.248;-6.134;2023-03-08T04:15:19;2.67;;;0.80;;
38683;SDS011;24910;53.248;-6.134;2023-03-08T04:17:49;3.22;;;0.80;;
38683;SDS011;24910;53.248;-6.134;2023-03-08T04:20:21;2.08;;;0.70;;
38683;SDS011;24910;53.248;-6.134;2023-03-08T04:22:56;3.08;;;0.70;;
38683;SDS011;24910;53.248;-6.134;2023-03-08T04:25:31;2.28;;;0.70;;
38683;SDS011;24910;53.248;-6.134;2023-03-08T04:28:02;2.63;;;0.85;;
38683;SDS011;24910;53.248;-6.134;2023-03-08T04:30:33;4.75;;;0.70;;
38683;SDS011;24910;53.248;-6.134;2023-03-08T04:33:04;2.03;;;0.60;;
38683;SDS011;24910;53.248;-6.134;2023-03-08T04:35:42;3.20;;;0.70;;
38683;SDS011;24910;53.248;-6.134;2023-03-08T04:38:12;3.15;;;0.70;;
38683;SDS011;24910;53.248;-6.134;2023-03-08T04:40:45;2.78;;;0.88;;
38683;SDS011;24910;53.248;-6.134;2023-03-08T04:43:59;2.28;;;0.70;;
38683;SDS011;24910;53.248;-6.134;2023-03-08T04:46:36;1.42;;;0.60;;
38683;SDS011;24910;53.248;-6.134;2023-03-08T04:51:40;3.10;;;0.70;;
38683;SDS011;24910;53.248;-6.134;2023-03-08T04:54:10;3.65;;;1.10;;
38683;SDS011;24910;53.248;-6.134;2023-03-08T04:56:45;1.10;;;0.60;;
38683;SDS011;24910;53.248;-6.134;2023-03-08T04:59:15;2.63;;;0.70;;
38683;SDS011;24910;53.248;-6.134;2023-03-08T05:01:46;3.08;;;0.70;;
38683;SDS011;24910;53.248;-6.134;2023-03-08T05:04:16;2.75;;;0.55;;
38683;SDS011;24910;53.248;-6.134;2023-03-08T05:06:46;8.18;;;0.77;;
38683;SDS011;24910;53.248;-6.134;2023-03-08T05:09:21;2.20;;;0.60;;
38683;SDS011;24910;53.248;-6.134;2023-03-08T05:11:51;1.48;;;0.60;;
38683;SDS011;24910;53.248;-6.134;2023-03-08T05:14:21;1.98;;;0.88;;
38683;SDS011;24910;53.248;-6.134;2023-03-08T05:16:54;2.88;;;0.68;;
38683;SDS011;24910;53.248;-6.134;2023-03-08T05:19:24;0.60;;;0.55;;
38683;SDS011;24910;53.248;-6.134;2023-03-08T05:21:53;2.58;;;0.63;;
38683;SDS011;24910;53.248;-6.134;2023-03-08T05:24:23;2.72;;;0.65;;
38683;SDS011;24910;53.248;-6.134;2023-03-08T05:26:55;3.65;;;0.75;;
38683;SDS011;24910;53.248;-6.134;2023-03-08T05:29:24;1.23;;;0.60;;
38683;SDS011;24910;53.248;-6.134;2023-03-08T05:31:55;1.88;;;0.60;;
38683;SDS011;24910;53.248;-6.134;2023-03-08T05:34:25;2.85;;;0.73;;
38683;SDS011;24910;53.248;-6.134;2023-03-08T05:36:56;2.97;;;0.70;;
38683;SDS011;24910;53.248;-6.134;2023-03-08T05:39:26;0.90;;;0.68;;
38683;SDS011;24910;53.248;-6.134;2023-03-08T05:42:05;1.95;;;0.60;;
38683;SDS011;24910;53.248;-6.134;2023-03-08T05:44:39;4.03;;;0.60;;
38683;SDS011;24910;53.248;-6.134;2023-03-08T05:47:12;1.85;;;0.70;;
38683;SDS011;24910;53.248;-6.134;2023-03-08T05:49:41;4.78;;;0.50;;
38683;SDS011;24910;53.248;-6.134;2023-03-08T05:52:11;2.33;;;0.60;;
38683;SDS011;24910;53.248;-6.134;2023-03-08T05:54:41;0.82;;;0.45;;
38683;SDS011;24910;53.248;-6.134;2023-03-08T05:57:15;3.20;;;0.60;;
38683;SDS011;24910;53.248;-6.134;2023-03-08T05:59:45;5.53;;;0.90;;
38683;SDS011;24910;53.248;-6.134;2023-03-08T06:02:19;2.10;;;0.60;;
38683;SDS011;24910;53.248;-6.134;2023-03-08T06:04:52;2.35;;;0.63;;
38683;SDS011;24910;53.248;-6.134;2023-03-08T06:09:58;4.00;;;1.02;;
38683;SDS011;24910;53.248;-6.134;2023-03-08T06:12:27;4.28;;;0.75;;
38683;SDS011;24910;53.248;-6.134;2023-03-08T06:15:00;3.22;;;0.80;;
38683;SDS011;24910;53.248;-6.134;2023-03-08T06:17:36;1.48;;;0.50;;
38683;SDS011;24910;53.248;-6.134;2023-03-08T06:20:05;3.42;;;0.90;;
38683;SDS011;24910;53.248;-6.134;2023-03-08T06:22:38;3.63;;;0.75;;
38683;SDS011;24910;53.248;-6.134;2023-03-08T06:25:10;2.53;;;0.60;;
38683;SDS011;24910;53.248;-6.134;2023-03-08T06:27:39;0.98;;;0.50;;
38683;SDS011;24910;53.248;-6.134;2023-03-08T06:30:18;3.80;;;0.85;;
38683;SDS011;24910;53.248;-6.134;2023-03-08T06:32:49;4.57;;;0.82;;
38683;SDS011;24910;53.248;-6.134;2023-03-08T06:35:18;3.40;;;0.70;;
38683;SDS011;24910;53.248;-6.134;2023-03-08T06:37:53;1.08;;;0.50;;
38683;SDS011;24910;53.248;-6.134;2023-03-08T06:40:22;1.65;;;0.60;;
38683;SDS011;24910;53.248;-6.134;2023-03-08T06:42:51;4.10;;;0.80;;
38683;SDS011;24910;53.248;-6.134;2023-03-08T06:45:20;2.95;;;0.70;;
38683;SDS011;24910;53.248;-6.134;2023-03-08T06:47:51;3.00;;;0.80;;
38683;SDS011;24910;53.248;-6.134;2023-03-08T06:50:20;0.77;;;0.50;;
38683;SDS011;24910;53.248;-6.134;2023-03-08T06:52:50;7.80;;;1.60;;
38683;SDS011;24910;53.248;-6.134;2023-03-08T06:55:28;3.53;;;0.80;;
38683;SDS011;24910;53.248;-6.134;2023-03-08T06:57:57;2.33;;;0.73;;
38683;SDS011;24910;53.248;-6.134;2023-03-08T07:00:26;5.00;;;1.02;;
38683;SDS011;24910;53.248;-6.134;2023-03-08T07:02:56;3.05;;;0.70;;
38683;SDS011;24910;53.248;-6.134;2023-03-08T07:05:26;1.48;;;0.85;;
38683;SDS011;24910;53.248;-6.134;2023-03-08T07:07:55;2.40;;;0.65;;
38683;SDS011;24910;53.248;-6.134;2023-03-08T07:10:24;3.90;;;0.80;;
38683;SDS011;24910;53.248;-6.134;2023-03-08T07:12:53;2.10;;;0.60;;
38683;SDS011;24910;53.248;-6.134;2023-03-08T07:15:23;3.92;;;0.80;;
38683;SDS011;24910;53.248;-6.134;2023-03-08T07:17:53;1.15;;;0.60;;
38683;SDS011;24910;53.248;-6.134;2023-03-08T07:20:25;3.53;;;0.70;;
38683;SDS011;24910;53.248;-6.134;2023-03-08T07:25:23;4.38;;;0.65;;
38683;SDS011;24910;53.248;-6.134;2023-03-08T07:27:52;5.65;;;0.80;;
38683;SDS011;24910;53.248;-6.134;2023-03-08T07:30:21;4.80;;;1.00;;
38683;SDS011;24910;53.248;-6.134;2023-03-08T07:32:51;3.60;;;1.00;;
38683;SDS011;24910;53.248;-6.134;2023-03-08T07:35:21;5.05;;;0.70;;
38683;SDS011;24910;53.248;-6.134;2023-03-08T07:37:52;1.90;;;0.80;;
38683;SDS011;24910;53.248;-6.134;2023-03-08T07:40:21;4.45;;;1.17;;
38683;SDS011;24910;53.248;-6.134;2023-03-08T07:42:50;5.05;;;1.10;;
38683;SDS011;24910;53.248;-6.134;2023-03-08T07:45:42;4.50;;;0.77;;
38683;SDS011;24910;53.248;-6.134;2023-03-08T07:48:11;5.15;;;0.90;;
38683;SDS011;24910;53.248;-6.134;2023-03-08T07:50:40;2.92;;;0.73;;
38683;SDS011;24910;53.248;-6.134;2023-03-08T07:53:11;5.93;;;1.05;;
38683;SDS011;24910;53.248;-6.134;2023-03-08T07:55:40;6.18;;;1.20;;
38683;SDS011;24910;53.248;-6.134;2023-03-08T07:58:09;2.42;;;0.80;;
38683;SDS011;24910;53.248;-6.134;2023-03-08T08:00:38;2.28;;;0.75;;
38683;SDS011;24910;53.248;-6.134;2023-03-08T08:03:07;3.08;;;0.93;;
38683;SDS011;24910;53.248;-6.134;2023-03-08T08:05:36;2.70;;;0.70;;
38683;SDS011;24910;53.248;-6.134;2023-03-08T08:08:05;7.78;;;1.00;;
38683;SDS011;24910;53.248;-6.134;2023-03-08T08:10:36;7.10;;;1.15;;
38683;SDS011;24910;53.248;-6.134;2023-03-08T08:13:05;2.72;;;0.85;;
38683;SDS011;24910;53.248;-6.134;2023-03-08T08:15:35;3.17;;;0.82;;
38683;SDS011;24910;53.248;-6.134;2023-03-08T08:18:04;2.47;;;0.68;;
38683;SDS011;24910;53.248;-6.134;2023-03-08T08:20:33;2.63;;;0.65;;
38683;SDS011;24910;53.248;-6.134;2023-03-08T08:23:03;6.00;;;0.90;;
38683;SDS011;24910;53.248;-6.134;2023-03-08T08:25:33;6.82;;;1.30;;
38683;SDS011;24910;53.248;-6.134;2023-03-08T08:28:04;5.75;;;1.08;;
38683;SDS011;24910;53.248;-6.134;2023-03-08T08:30:33;4.20;;;1.10;;
38683;SDS011;24910;53.248;-6.134;2023-03-08T08:33:05;2.90;;;0.93;;
38683;SDS011;24910;53.248;-6.134;2023-03-08T08:35:34;4.50;;;0.65;;
38683;SDS011;24910;53.248;-6.134;2023-03-08T08:38:09;3.63;;;0.80;;
38683;SDS011;24910;53.248;-6.134;2023-03-08T08:40:38;3.72;;;0.80;;
38683;SDS011;24910;53.248;-6.134;2023-03-08T08:43:09;3.80;;;0.70;;
38683;SDS011;24910;53.248;-6.134;2023-03-08T08:45:41;3.83;;;1.02;;
38683;SDS011;24910;53.248;-6.134;2023-03-08T08:48:11;2.75;;;0.90;;
38683;SDS011;24910;53.248;-6.134;2023-03-08T08:50:41;5.25;;;1.52;;
38683;SDS011;24910;53.248;-6.134;2023-03-08T08:53:10;3.17;;;0.93;;
38683;SDS011;24910;53.248;-6.134;2023-03-08T08:55:39;1.90;;;0.88;;
38683;SDS011;24910;53.248;-6.134;2023-03-08T08:58:13;4.97;;;0.95;;
38683;SDS011;24910;53.248;-6.134;2023-03-08T09:00:45;3.17;;;0.90;;
38683;SDS011;24910;53.248;-6.134;2023-03-08T09:03:14;2.25;;;0.80;;
38683;SDS011;24910;53.248;-6.134;2023-03-08T09:05:43;6.40;;;1.10;;
38683;SDS011;24910;53.248;-6.134;2023-03-08T09:08:12;2.47;;;0.80;;
38683;SDS011;24910;53.248;-6.134;2023-03-08T09:10:42;5.05;;;1.08;;
38683;SDS011;24910;53.248;-6.134;2023-03-08T09:13:12;3.78;;;1.10;;
38683;SDS011;24910;53.248;-6.134;2023-03-08T09:15:42;2.78;;;0.80;;
38683;SDS011;24910;53.248;-6.134;2023-03-08T09:18:11;5.38;;;1.38;;
38683;SDS011;24910;53.248;-6.134;2023-03-08T09:20:40;3.20;;;1.48;;
38683;SDS011;24910;53.248;-6.134;2023-03-08T09:23:09;5.93;;;2.15;;
38683;SDS011;24910;53.248;-6.134;2023-03-08T09:25:38;8.77;;;1.98;;
38683;SDS011;24910;53.248;-6.134;2023-03-08T09:28:07;9.20;;;2.00;;
38683;SDS011;24910;53.248;-6.134;2023-03-08T09:30:39;8.57;;;2.60;;
38683;SDS011;24910;53.248;-6.134;2023-03-08T09:33:08;6.97;;;2.17;;
38683;SDS011;24910;53.248;-6.134;2023-03-08T09:35:37;5.90;;;3.40;;
38683;SDS011;24910;53.248;-6.134;2023-03-08T09:38:07;7.13;;;3.22;;
38683;SDS011;24910;53.248;-6.134;2023-03-08T09:40:37;7.50;;;3.58;;
38683;SDS011;24910;53.248;-6.134;2023-03-08T09:43:16;6.18;;;3.53;;
38683;SDS011;24910;53.248;-6.134;2023-03-08T09:45:54;8.98;;;3.75;;
38683;SDS011;24910;53.248;-6.134;2023-03-08T09:48:24;7.50;;;3.92;;
38683;SDS011;24910;53.248;-6.134;2023-03-08T09:50:57;6.13;;;3.90;;
38683;SDS011;24910;53.248;-6.134;2023-03-08T09:53:31;9.40;;;4.22;;
38683;SDS011;24910;53.248;-6.134;2023-03-08T09:56:04;12.18;;;4.93;;
38683;SDS011;24910;53.248;-6.134;2023-03-08T09:58:39;9.10;;;4.82;;
38683;SDS011;24910;53.248;-6.134;2023-03-08T10:01:16;12.82;;;4.97;;
38683;SDS011;24910;53.248;-6.134;2023-03-08T10:04:03;9.13;;;5.77;;
38683;SDS011;24910;53.248;-6.134;2023-03-08T10:06:42;14.65;;;6.97;;
38683;SDS011;24910;53.248;-6.134;2023-03-08T10:09:20;14.35;;;7.07;;
38683;SDS011;24910;53.248;-6.134;2023-03-08T10:12:00;13.20;;;7.28;;
38683;SDS011;24910;53.248;-6.134;2023-03-08T10:14:40;12.32;;;6.63;;
38683;SDS011;24910;53.248;-6.134;2023-03-08T10:17:14;13.80;;;6.90;;
38683;SDS011;24910;53.248;-6.134;2023-03-08T10:19:49;23.25;;;8.60;;
38683;SDS011;24910;53.248;-6.134;2023-03-08T10:22:24;12.70;;;7.28;;
38683;SDS011;24910;53.248;-6.134;2023-03-08T10:24:56;15.88;;;8.32;;
38683;SDS011;24910;53.248;-6.134;2023-03-08T10:27:30;16.27;;;8.27;;
38683;SDS011;24910;53.248;-6.134;2023-03-08T10:30:06;15.88;;;7.68;;
38683;SDS011;24910;53.248;-6.134;2023-03-08T10:32:43;12.48;;;7.90;;
38683;SDS011;24910;53.248;-6.134;2023-03-08T10:35:14;16.80;;;8.18;;
38683;SDS011;24910;53.248;-6.134;2023-03-08T10:37:49;18.48;;;8.82;;
38683;SDS011;24910;53.248;-6.134;2023-03-08T10:40:19;14.77;;;8.23;;
38683;SDS011;24910;53.248;-6.134;2023-03-08T10:42:50;17.08;;;8.80;;
38683;SDS011;24910;53.248;-6.134;2023-03-08T10:45:24;14.98;;;8.80;;
38683;SDS011;24910;53.248;-6.134;2023-03-08T10:47:57;16.05;;;8.70;;
38683;SDS011;24910;53.248;-6.134;2023-03-08T10:50:27;19.63;;;8.63;;
38683;SDS011;24910;53.248;-6.134;2023-03-08T10:53:06;15.68;;;8.70;;
38683;SDS011;24910;53.248;-6.134;2023-03-08T10:55:40;13.23;;;7.85;;
38683;SDS011;24910;53.248;-6.134;2023-03-08T10:58:28;14.20;;;8.85;;
38683;SDS011;24910;53.248;-6.134;2023-03-08T11:01:03;14.13;;;8.57;;
38683;SDS011;24910;53.248;-6.134;2023-03-08T11:03:36;17.38;;;8.32;;
38683;SDS011;24910;53.248;-6.134;2023-03-08T11:06:12;13.30;;;7.70;;
38683;SDS011;24910;53.248;-6.134;2023-03-08T11:08:50;12.13;;;8.10;;
38683;SDS011;24910;53.248;-6.134;2023-03-08T11:11:20;16.70;;;8.52;;
38683;SDS011;24910;53.248;-6.134;2023-03-08T11:13:50;15.80;;;8.25;;
38683;SDS011;24910;53.248;-6.134;2023-03-08T11:16:23;20.13;;;8.52;;
38683;SDS011;24910;53.248;-6.134;2023-03-08T11:19:08;15.00;;;7.90;;
38683;SDS011;24910;53.248;-6.134;2023-03-08T11:22:00;15.38;;;8.40;;
38683;SDS011;24910;53.248;-6.134;2023-03-08T11:24:41;13.40;;;7.22;;
38683;SDS011;24910;53.248;-6.134;2023-03-08T11:27:23;11.07;;;6.55;;
38683;SDS011;24910;53.248;-6.134;2023-03-08T11:30:02;11.52;;;6.63;;
38683;SDS011;24910;53.248;-6.134;2023-03-08T11:32:46;13.05;;;7.20;;
38683;SDS011;24910;53.248;-6.134;2023-03-08T11:35:30;14.15;;;6.80;;
38683;SDS011;24910;53.248;-6.134;2023-03-08T11:38:05;18.88;;;7.57;;
38683;SDS011;24910;53.248;-6.134;2023-03-08T11:40:41;13.57;;;7.40;;
38683;SDS011;24910;53.248;-6.134;2023-03-08T11:43:23;23.10;;;8.32;;
38683;SDS011;24910;53.248;-6.134;2023-03-08T11:46:03;17.98;;;7.95;;
38683;SDS011;24910;53.248;-6.134;2023-03-08T11:48:41;15.25;;;7.88;;
38683;SDS011;24910;53.248;-6.134;2023-03-08T11:51:23;20.10;;;9.25;;
38683;SDS011;24910;53.248;-6.134;2023-03-08T11:54:03;14.77;;;7.93;;
38683;SDS011;24910;53.248;-6.134;2023-03-08T11:56:46;17.20;;;8.77;;
38683;SDS011;24910;53.248;-6.134;2023-03-08T11:59:20;17.48;;;7.75;;
38683;SDS011;24910;53.248;-6.134;2023-03-08T12:01:55;16.05;;;7.78;;
38683;SDS011;24910;53.248;-6.134;2023-03-08T12:04:30;13.88;;;7.78;;
38683;SDS011;24910;53.248;-6.134;2023-03-08T12:07:06;18.40;;;8.23;;
38683;SDS011;24910;53.248;-6.134;2023-03-08T12:09:41;20.10;;;9.40;;
38683;SDS011;24910;53.248;-6.134;2023-03-08T12:12:20;16.08;;;8.45;;
38683;SDS011;24910;53.248;-6.134;2023-03-08T12:14:55;21.17;;;9.70;;
38683;SDS011;24910;53.248;-6.134;2023-03-08T12:17:29;14.23;;;7.88;;
38683;SDS011;24910;53.248;-6.134;2023-03-08T12:20:06;18.33;;;8.63;;
38683;SDS011;24910;53.248;-6.134;2023-03-08T12:22:45;15.27;;;8.63;;
38683;SDS011;24910;53.248;-6.134;2023-03-08T12:25:22;19.90;;;8.77;;
38683;SDS011;24910;53.248;-6.134;2023-03-08T12:27:55;19.45;;;8.60;;
38683;SDS011;24910;53.248;-6.134;2023-03-08T12:30:41;19.15;;;8.65;;
38683;SDS011;24910;53.248;-6.134;2023-03-08T12:33:17;17.58;;;6.88;;
38683;SDS011;24910;53.248;-6.134;2023-03-08T12:35:50;11.88;;;6.55;;
38683;SDS011;24910;53.248;-6.134;2023-03-08T12:38:30;13.35;;;7.03;;
38683;SDS011;24910;53.248;-6.134;2023-03-08T12:43:34;13.97;;;6.67;;
38683;SDS011;24910;53.248;-6.134;2023-03-08T12:46:05;13.77;;;6.50;;
38683;SDS011;24910;53.248;-6.134;2023-03-08T12:48:36;14.70;;;7.10;;
38683;SDS011;24910;53.248;-6.134;2023-03-08T12:51:16;14.57;;;6.60;;
38683;SDS011;24910;53.248;-6.134;2023-03-08T12:53:58;12.25;;;6.50;;
38683;SDS011;24910;53.248;-6.134;2023-03-08T12:56:30;15.32;;;7.07;;
38683;SDS011;24910;53.248;-6.134;2023-03-08T12:59:02;13.35;;;6.78;;
38683;SDS011;24910;53.248;-6.134;2023-03-08T13:02:00;11.65;;;6.43;;
38683;SDS011;24910;53.248;-6.134;2023-03-08T13:04:32;13.68;;;7.03;;
38683;SDS011;24910;53.248;-6.134;2023-03-08T13:07:10;12.57;;;6.15;;
38683;SDS011;24910;53.248;-6.134;2023-03-08T13:09:48;13.50;;;6.65;;
38683;SDS011;24910;53.248;-6.134;2023-03-08T13:12:33;16.58;;;6.78;;
38683;SDS011;24910;53.248;-6.134;2023-03-08T13:15:16;13.68;;;6.47;;
38683;SDS011;24910;53.248;-6.134;2023-03-08T13:17:50;12.38;;;6.25;;
38683;SDS011;24910;53.248;-6.134;2023-03-08T13:20:39;14.77;;;5.93;;
38683;SDS011;24910;53.248;-6.134;2023-03-08T13:23:20;10.95;;;5.75;;
38683;SDS011;24910;53.248;-6.134;2023-03-08T13:26:03;15.48;;;5.70;;
38683;SDS011;24910;53.248;-6.134;2023-03-08T13:28:42;15.48;;;6.32;;
38683;SDS011;24910;53.248;-6.134;2023-03-08T13:31:15;11.05;;;5.60;;
38683;SDS011;24910;53.248;-6.134;2023-03-08T13:33:46;9.55;;;5.45;;
38683;SDS011;24910;53.248;-6.134;2023-03-08T13:38:54;14.55;;;5.13;;
38683;SDS011;24910;53.248;-6.134;2023-03-08T13:41:33;12.82;;;4.60;;
38683;SDS011;24910;53.248;-6.134;2023-03-08T13:44:04;11.13;;;5.35;;
38683;SDS011;24910;53.248;-6.134;2023-03-08T13:46:35;11.80;;;5.78;;
38683;SDS011;24910;53.248;-6.134;2023-03-08T13:49:12;10.85;;;5.32;;
38683;SDS011;24910;53.248;-6.134;2023-03-08T13:51:42;13.57;;;5.70;;
38683;SDS011;24910;53.248;-6.134;2023-03-08T13:54:15;10.27;;;5.72;;
38683;SDS011;24910;53.248;-6.134;2023-03-08T13:56:54;11.05;;;5.70;;
38683;SDS011;24910;53.248;-6.134;2023-03-08T14:01:53;13.02;;;5.38;;
38683;SDS011;24910;53.248;-6.134;2023-03-08T14:04:23;12.43;;;5.13;;
38683;SDS011;24910;53.248;-6.134;2023-03-08T14:06:54;13.60;;;5.60;;
38683;SDS011;24910;53.248;-6.134;2023-03-08T14:09:24;12.13;;;5.05;;
38683;SDS011;24910;53.248;-6.134;2023-03-08T14:11:56;12.23;;;5.20;;
38683;SDS011;24910;53.248;-6.134;2023-03-08T14:14:28;9.65;;;4.80;;
38683;SDS011;24910;53.248;-6.134;2023-03-08T14:16:59;9.88;;;5.05;;
38683;SDS011;24910;53.248;-6.134;2023-03-08T14:19:30;15.60;;;5.38;;
38683;SDS011;24910;53.248;-6.134;2023-03-08T14:22:01;12.82;;;5.40;;
38683;SDS011;24910;53.248;-6.134;2023-03-08T14:24:37;13.70;;;5.53;;
38683;SDS011;24910;53.248;-6.134;2023-03-08T14:30:02;7.25;;;4.47;;
38683;SDS011;24910;53.248;-6.134;2023-03-08T14:32:39;9.13;;;4.18;;
38683;SDS011;24910;53.248;-6.134;2023-03-08T14:35:14;12.10;;;4.07;;
38683;SDS011;24910;53.248;-6.134;2023-03-08T14:37:47;7.60;;;3.47;;
38683;SDS011;24910;53.248;-6.134;2023-03-08T14:40:24;7.88;;;3.63;;
38683;SDS011;24910;53.248;-6.134;2023-03-08T14:42:56;7.07;;;3.70;;
38683;SDS011;24910;53.248;-6.134;2023-03-08T14:45:31;6.78;;;3.47;;
38683;SDS011;24910;53.248;-6.134;2023-03-08T14:48:15;7.03;;;3.50;;
38683;SDS011;24910;53.248;-6.134;2023-03-08T14:50:51;8.75;;;3.25;;
38683;SDS011;24910;53.248;-6.134;2023-03-08T14:53:24;7.90;;;4.07;;
38683;SDS011;24910;53.248;-6.134;2023-03-08T14:55:56;10.30;;;4.22;;
38683;SDS011;24910;53.248;-6.134;2023-03-08T14:58:26;10.52;;;5.50;;
38683;SDS011;24910;53.248;-6.134;2023-03-08T15:00:59;11.68;;;4.57;;
38683;SDS011;24910;53.248;-6.134;2023-03-08T15:03:29;13.57;;;4.95;;
38683;SDS011;24910;53.248;-6.134;2023-03-08T15:06:00;8.70;;;4.80;;
38683;SDS011;24910;53.248;-6.134;2023-03-08T15:08:34;9.27;;;4.07;;
38683;SDS011;24910;53.248;-6.134;2023-03-08T15:11:05;12.15;;;5.35;;
38683;SDS011;24910;53.248;-6.134;2023-03-08T15:13:34;11.17;;;4.40;;
38683;SDS011;24910;53.248;-6.134;2023-03-08T15:16:06;18.85;;;6.30;;
38683;SDS011;24910;53.248;-6.134;2023-03-08T15:18:40;13.18;;;4.57;;
38683;SDS011;24910;53.248;-6.134;2023-03-08T15:21:11;6.47;;;3.72;;
38683;SDS011;24910;53.248;-6.134;2023-03-08T15:23:42;9.38;;;4.03;;